sensor_id;sensor_type;location;lat;lon;timestamp;temperature;humidity
20574;DHT22;10445;50.216;7.912;2022-08-21T00:02:14;15.70;1.80
20574;DHT22;10445;50.216;7.912;2022-08-21T00:05:03;15.60;2.70
20574;DHT22;10445;50.216;7.912;2022-08-21T00:07:55;15.50;3.00
20574;DHT22;10445;50.216;7.912;2022-08-21T00:10:44;15.50;3.40
20574;DHT22;10445;50.216;7.912;2022-08-21T00:13:33;15.60;4.00
20574;DHT22;10445;50.216;7.912;2022-08-21T00:16:22;15.50;4.40
20574;DHT22;10445;50.216;7.912;2022-08-21T00:19:11;15.60;4.60
20574;DHT22;10445;50.216;7.912;2022-08-21T00:22:00;15.50;5.10
20574;DHT22;10445;50.216;7.912;2022-08-21T00:24:50;15.50;4.80
20574;DHT22;10445;50.216;7.912;2022-08-21T00:27:39;15.40;4.90
20574;DHT22;10445;50.216;7.912;2022-08-21T00:30:29;15.30;5.20
20574;DHT22;10445;50.216;7.912;2022-08-21T00:33:18;15.30;5.80
20574;DHT22;10445;50.216;7.912;2022-08-21T00:36:08;15.30;6.60
20574;DHT22;10445;50.216;7.912;2022-08-21T00:38:57;15.30;7.10
20574;DHT22;10445;50.216;7.912;2022-08-21T00:41:48;15.30;7.80
20574;DHT22;10445;50.216;7.912;2022-08-21T00:44:36;15.30;7.70
20574;DHT22;10445;50.216;7.912;2022-08-21T00:47:25;15.30;7.80
20574;DHT22;10445;50.216;7.912;2022-08-21T00:50:14;15.30;8.00
20574;DHT22;10445;50.216;7.912;2022-08-21T00:53:10;15.30;8.10
20574;DHT22;10445;50.216;7.912;2022-08-21T00:55:59;15.30;8.00
20574;DHT22;10445;50.216;7.912;2022-08-21T00:58:52;15.30;8.10
20574;DHT22;10445;50.216;7.912;2022-08-21T01:01:42;15.30;8.70
20574;DHT22;10445;50.216;7.912;2022-08-21T01:04:31;15.30;7.80
20574;DHT22;10445;50.216;7.912;2022-08-21T01:07:20;15.30;7.80
20574;DHT22;10445;50.216;7.912;2022-08-21T01:10:14;15.20;7.40
20574;DHT22;10445;50.216;7.912;2022-08-21T01:13:11;15.10;7.60
20574;DHT22;10445;50.216;7.912;2022-08-21T01:16:08;15.10;7.90
20574;DHT22;10445;50.216;7.912;2022-08-21T01:18:57;15.00;8.20
20574;DHT22;10445;50.216;7.912;2022-08-21T01:21:47;15.00;8.80
20574;DHT22;10445;50.216;7.912;2022-08-21T01:24:36;14.90;8.90
20574;DHT22;10445;50.216;7.912;2022-08-21T01:27:25;15.00;9.70
20574;DHT22;10445;50.216;7.912;2022-08-21T01:30:18;14.90;10.10
20574;DHT22;10445;50.216;7.912;2022-08-21T01:33:07;14.90;10.10
20574;DHT22;10445;50.216;7.912;2022-08-21T01:35:55;14.90;9.90
20574;DHT22;10445;50.216;7.912;2022-08-21T01:38:46;14.80;10.50
20574;DHT22;10445;50.216;7.912;2022-08-21T01:41:35;14.80;10.90
20574;DHT22;10445;50.216;7.912;2022-08-21T01:44:24;14.80;10.30
20574;DHT22;10445;50.216;7.912;2022-08-21T01:47:15;14.80;10.00
20574;DHT22;10445;50.216;7.912;2022-08-21T01:50:07;14.80;10.90
20574;DHT22;10445;50.216;7.912;2022-08-21T01:52:56;14.70;11.30
20574;DHT22;10445;50.216;7.912;2022-08-21T01:55:46;14.70;11.20
20574;DHT22;10445;50.216;7.912;2022-08-21T01:58:35;14.70;11.90
20574;DHT22;10445;50.216;7.912;2022-08-21T02:01:24;14.60;12.40
20574;DHT22;10445;50.216;7.912;2022-08-21T02:04:13;14.70;12.20
20574;DHT22;10445;50.216;7.912;2022-08-21T02:07:02;14.70;12.40
20574;DHT22;10445;50.216;7.912;2022-08-21T02:09:54;14.70;12.90
20574;DHT22;10445;50.216;7.912;2022-08-21T02:12:45;14.60;14.00
20574;DHT22;10445;50.216;7.912;2022-08-21T02:15:34;14.60;14.80
20574;DHT22;10445;50.216;7.912;2022-08-21T02:18:23;14.60;15.00
20574;DHT22;10445;50.216;7.912;2022-08-21T02:21:11;14.50;15.10
20574;DHT22;10445;50.216;7.912;2022-08-21T02:24:01;14.50;15.20
20574;DHT22;10445;50.216;7.912;2022-08-21T02:26:50;14.40;15.90
20574;DHT22;10445;50.216;7.912;2022-08-21T02:29:40;14.40;16.60
20574;DHT22;10445;50.216;7.912;2022-08-21T02:32:29;14.40;17.90
20574;DHT22;10445;50.216;7.912;2022-08-21T02:35:18;14.40;19.20
20574;DHT22;10445;50.216;7.912;2022-08-21T02:38:09;14.40;20.20
20574;DHT22;10445;50.216;7.912;2022-08-21T02:40:59;14.30;20.80
20574;DHT22;10445;50.216;7.912;2022-08-21T02:43:49;14.30;21.60
20574;DHT22;10445;50.216;7.912;2022-08-21T02:46:39;14.30;22.30
20574;DHT22;10445;50.216;7.912;2022-08-21T02:49:28;14.30;23.20
20574;DHT22;10445;50.216;7.912;2022-08-21T02:52:16;14.30;23.40
20574;DHT22;10445;50.216;7.912;2022-08-21T02:55:05;14.30;22.90
20574;DHT22;10445;50.216;7.912;2022-08-21T02:57:55;14.30;23.00
20574;DHT22;10445;50.216;7.912;2022-08-21T03:00:45;14.30;22.20
20574;DHT22;10445;50.216;7.912;2022-08-21T03:03:36;14.30;22.80
20574;DHT22;10445;50.216;7.912;2022-08-21T03:06:25;14.30;23.70
20574;DHT22;10445;50.216;7.912;2022-08-21T03:09:16;14.30;23.60
20574;DHT22;10445;50.216;7.912;2022-08-21T03:12:05;14.20;23.40
20574;DHT22;10445;50.216;7.912;2022-08-21T03:14:53;14.30;22.80
20574;DHT22;10445;50.216;7.912;2022-08-21T03:17:42;14.20;23.00
20574;DHT22;10445;50.216;7.912;2022-08-21T03:20:34;14.20;23.70
20574;DHT22;10445;50.216;7.912;2022-08-21T03:23:23;14.20;24.90
20574;DHT22;10445;50.216;7.912;2022-08-21T03:26:18;14.20;25.60
20574;DHT22;10445;50.216;7.912;2022-08-21T03:29:07;14.10;25.90
20574;DHT22;10445;50.216;7.912;2022-08-21T03:31:56;14.20;26.10
20574;DHT22;10445;50.216;7.912;2022-08-21T03:34:45;14.20;26.10
20574;DHT22;10445;50.216;7.912;2022-08-21T03:37:35;14.20;26.80
20574;DHT22;10445;50.216;7.912;2022-08-21T03:40:25;14.20;27.60
20574;DHT22;10445;50.216;7.912;2022-08-21T03:43:14;14.10;27.00
20574;DHT22;10445;50.216;7.912;2022-08-21T03:46:04;14.10;27.60
20574;DHT22;10445;50.216;7.912;2022-08-21T03:48:53;14.10;28.00
20574;DHT22;10445;50.216;7.912;2022-08-21T03:51:42;14.10;30.40
20574;DHT22;10445;50.216;7.912;2022-08-21T03:54:33;14.10;32.10
20574;DHT22;10445;50.216;7.912;2022-08-21T03:57:21;14.00;31.40
20574;DHT22;10445;50.216;7.912;2022-08-21T04:00:11;14.00;32.00
20574;DHT22;10445;50.216;7.912;2022-08-21T04:03:00;14.10;32.00
20574;DHT22;10445;50.216;7.912;2022-08-21T04:05:49;14.10;31.70
20574;DHT22;10445;50.216;7.912;2022-08-21T04:08:38;14.10;31.60
20574;DHT22;10445;50.216;7.912;2022-08-21T04:11:31;14.10;32.30
20574;DHT22;10445;50.216;7.912;2022-08-21T04:14:20;14.00;34.10
20574;DHT22;10445;50.216;7.912;2022-08-21T04:17:09;14.00;36.10
20574;DHT22;10445;50.216;7.912;2022-08-21T04:19:58;13.90;37.80
20574;DHT22;10445;50.216;7.912;2022-08-21T04:22:47;13.90;38.40
20574;DHT22;10445;50.216;7.912;2022-08-21T04:25:36;13.90;40.90
20574;DHT22;10445;50.216;7.912;2022-08-21T04:28:27;13.90;41.70
20574;DHT22;10445;50.216;7.912;2022-08-21T04:31:17;13.90;40.60
20574;DHT22;10445;50.216;7.912;2022-08-21T04:34:06;13.90;42.20
20574;DHT22;10445;50.216;7.912;2022-08-21T04:36:55;13.90;42.30
20574;DHT22;10445;50.216;7.912;2022-08-21T04:39:43;13.90;43.30
20574;DHT22;10445;50.216;7.912;2022-08-21T04:42:43;13.90;44.40
20574;DHT22;10445;50.216;7.912;2022-08-21T04:45:35;13.90;44.00
20574;DHT22;10445;50.216;7.912;2022-08-21T04:48:24;13.90;44.70
20574;DHT22;10445;50.216;7.912;2022-08-21T04:51:18;13.90;44.80
20574;DHT22;10445;50.216;7.912;2022-08-21T04:54:13;13.90;45.30
20574;DHT22;10445;50.216;7.912;2022-08-21T04:57:06;13.90;46.10
20574;DHT22;10445;50.216;7.912;2022-08-21T04:59:58;13.90;46.40
20574;DHT22;10445;50.216;7.912;2022-08-21T05:02:50;13.90;46.50
20574;DHT22;10445;50.216;7.912;2022-08-21T05:05:41;14.00;47.40
20574;DHT22;10445;50.216;7.912;2022-08-21T05:08:30;14.00;46.80
20574;DHT22;10445;50.216;7.912;2022-08-21T05:11:19;14.10;46.40
20574;DHT22;10445;50.216;7.912;2022-08-21T05:14:12;14.10;46.40
20574;DHT22;10445;50.216;7.912;2022-08-21T05:17:01;14.20;46.00
20574;DHT22;10445;50.216;7.912;2022-08-21T05:19:51;14.20;46.20
20574;DHT22;10445;50.216;7.912;2022-08-21T05:22:43;14.30;46.40
20574;DHT22;10445;50.216;7.912;2022-08-21T05:25:32;14.30;47.30
20574;DHT22;10445;50.216;7.912;2022-08-21T05:28:21;14.40;47.20
20574;DHT22;10445;50.216;7.912;2022-08-21T05:31:13;14.40;47.10
20574;DHT22;10445;50.216;7.912;2022-08-21T05:34:01;14.50;47.50
20574;DHT22;10445;50.216;7.912;2022-08-21T05:36:52;14.60;47.00
20574;DHT22;10445;50.216;7.912;2022-08-21T05:39:41;14.70;46.60
20574;DHT22;10445;50.216;7.912;2022-08-21T05:42:50;14.70;46.30
20574;DHT22;10445;50.216;7.912;2022-08-21T05:45:41;14.80;46.10
20574;DHT22;10445;50.216;7.912;2022-08-21T05:48:31;14.90;46.30
20574;DHT22;10445;50.216;7.912;2022-08-21T05:51:20;15.00;46.50
20574;DHT22;10445;50.216;7.912;2022-08-21T05:54:10;15.10;46.90
20574;DHT22;10445;50.216;7.912;2022-08-21T05:56:59;15.30;46.80
20574;DHT22;10445;50.216;7.912;2022-08-21T05:59:48;15.40;46.20
20574;DHT22;10445;50.216;7.912;2022-08-21T06:02:37;15.50;46.00
20574;DHT22;10445;50.216;7.912;2022-08-21T06:05:28;15.70;45.20
20574;DHT22;10445;50.216;7.912;2022-08-21T06:08:24;15.80;44.00
20574;DHT22;10445;50.216;7.912;2022-08-21T06:11:14;16.00;43.00
20574;DHT22;10445;50.216;7.912;2022-08-21T06:14:03;16.10;42.30
20574;DHT22;10445;50.216;7.912;2022-08-21T06:16:53;16.20;40.60
20574;DHT22;10445;50.216;7.912;2022-08-21T06:19:42;16.40;40.20
20574;DHT22;10445;50.216;7.912;2022-08-21T06:22:32;16.50;41.10
20574;DHT22;10445;50.216;7.912;2022-08-21T06:25:21;16.80;39.10
20574;DHT22;10445;50.216;7.912;2022-08-21T06:28:11;16.90;37.50
20574;DHT22;10445;50.216;7.912;2022-08-21T06:31:01;17.20;37.10
20574;DHT22;10445;50.216;7.912;2022-08-21T06:33:50;17.40;36.60
20574;DHT22;10445;50.216;7.912;2022-08-21T06:36:39;17.60;35.10
20574;DHT22;10445;50.216;7.912;2022-08-21T06:39:28;17.90;32.90
20574;DHT22;10445;50.216;7.912;2022-08-21T06:42:18;18.00;32.60
20574;DHT22;10445;50.216;7.912;2022-08-21T06:45:15;18.20;32.20
20574;DHT22;10445;50.216;7.912;2022-08-21T06:48:04;18.60;29.00
20574;DHT22;10445;50.216;7.912;2022-08-21T06:50:54;19.10;23.40
20574;DHT22;10445;50.216;7.912;2022-08-21T06:53:43;19.30;18.80
20574;DHT22;10445;50.216;7.912;2022-08-21T06:56:32;19.30;18.80
20574;DHT22;10445;50.216;7.912;2022-08-21T06:59:22;19.20;19.30
20574;DHT22;10445;50.216;7.912;2022-08-21T07:02:12;19.10;20.20
20574;DHT22;10445;50.216;7.912;2022-08-21T07:05:01;19.10;21.10
20574;DHT22;10445;50.216;7.912;2022-08-21T07:08:04;19.10;21.10
20574;DHT22;10445;50.216;7.912;2022-08-21T07:10:53;19.20;20.50
20574;DHT22;10445;50.216;7.912;2022-08-21T07:13:43;19.20;18.80
20574;DHT22;10445;50.216;7.912;2022-08-21T07:16:32;19.20;17.20
20574;DHT22;10445;50.216;7.912;2022-08-21T07:19:22;19.20;18.70
20574;DHT22;10445;50.216;7.912;2022-08-21T07:22:12;19.30;16.30
20574;DHT22;10445;50.216;7.912;2022-08-21T07:25:05;19.40;16.50
20574;DHT22;10445;50.216;7.912;2022-08-21T07:27:55;19.50;17.70
20574;DHT22;10445;50.216;7.912;2022-08-21T07:30:45;19.60;15.70
20574;DHT22;10445;50.216;7.912;2022-08-21T07:33:35;19.80;14.70
20574;DHT22;10445;50.216;7.912;2022-08-21T07:36:25;19.80;15.80
20574;DHT22;10445;50.216;7.912;2022-08-21T07:39:14;20.00;15.50
20574;DHT22;10445;50.216;7.912;2022-08-21T07:42:04;20.10;14.40
20574;DHT22;10445;50.216;7.912;2022-08-21T07:44:55;20.20;9.70
20574;DHT22;10445;50.216;7.912;2022-08-21T07:47:44;20.20;8.90
20574;DHT22;10445;50.216;7.912;2022-08-21T07:50:32;20.20;8.30
20574;DHT22;10445;50.216;7.912;2022-08-21T07:53:22;20.40;9.20
20574;DHT22;10445;50.216;7.912;2022-08-21T07:56:11;20.50;9.00
20574;DHT22;10445;50.216;7.912;2022-08-21T07:59:00;20.50;5.40
20574;DHT22;10445;50.216;7.912;2022-08-21T08:01:50;20.70;5.10
20574;DHT22;10445;50.216;7.912;2022-08-21T08:04:38;21.10;2.30
20574;DHT22;10445;50.216;7.912;2022-08-21T08:07:37;21.70;1.20
20574;DHT22;10445;50.216;7.912;2022-08-21T08:10:28;22.30;1.00
20574;DHT22;10445;50.216;7.912;2022-08-21T08:13:17;22.30;1.00
20574;DHT22;10445;50.216;7.912;2022-08-21T08:16:06;22.30;1.00
20574;DHT22;10445;50.216;7.912;2022-08-21T08:18:55;22.20;1.00
20574;DHT22;10445;50.216;7.912;2022-08-21T08:21:44;22.10;1.00
20574;DHT22;10445;50.216;7.912;2022-08-21T08:24:38;22.00;1.00
20574;DHT22;10445;50.216;7.912;2022-08-21T08:27:28;21.90;1.00
20574;DHT22;10445;50.216;7.912;2022-08-21T08:30:19;21.60;1.00
20574;DHT22;10445;50.216;7.912;2022-08-21T08:33:09;21.50;1.00
20574;DHT22;10445;50.216;7.912;2022-08-21T08:35:58;21.50;1.00
20574;DHT22;10445;50.216;7.912;2022-08-21T08:38:54;21.90;1.00
20574;DHT22;10445;50.216;7.912;2022-08-21T08:41:45;22.30;1.00
20574;DHT22;10445;50.216;7.912;2022-08-21T08:44:50;22.40;1.00
20574;DHT22;10445;50.216;7.912;2022-08-21T08:47:48;22.40;1.00
20574;DHT22;10445;50.216;7.912;2022-08-21T08:55:21;22.30;1.00
20574;DHT22;10445;50.216;7.912;2022-08-21T08:58:20;22.20;1.00
20574;DHT22;10445;50.216;7.912;2022-08-21T09:01:15;22.10;1.00
20574;DHT22;10445;50.216;7.912;2022-08-21T09:04:10;22.10;1.00
20574;DHT22;10445;50.216;7.912;2022-08-21T09:07:11;21.90;1.00
20574;DHT22;10445;50.216;7.912;2022-08-21T09:10:12;21.90;1.00
20574;DHT22;10445;50.216;7.912;2022-08-21T09:13:07;22.10;1.00
20574;DHT22;10445;50.216;7.912;2022-08-21T09:16:10;22.20;1.00
20574;DHT22;10445;50.216;7.912;2022-08-21T09:19:10;22.20;1.00
20574;DHT22;10445;50.216;7.912;2022-08-21T09:22:19;22.00;1.00
20574;DHT22;10445;50.216;7.912;2022-08-21T09:25:16;21.90;1.00
20574;DHT22;10445;50.216;7.912;2022-08-21T09:28:09;21.90;1.00
20574;DHT22;10445;50.216;7.912;2022-08-21T09:31:07;21.90;1.00
20574;DHT22;10445;50.216;7.912;2022-08-21T09:34:01;22.10;1.00
20574;DHT22;10445;50.216;7.912;2022-08-21T09:36:51;22.20;1.00
20574;DHT22;10445;50.216;7.912;2022-08-21T09:39:40;22.40;1.00
20574;DHT22;10445;50.216;7.912;2022-08-21T09:42:34;22.40;1.00
20574;DHT22;10445;50.216;7.912;2022-08-21T09:45:23;22.40;1.00
20574;DHT22;10445;50.216;7.912;2022-08-21T09:48:17;22.30;1.00
20574;DHT22;10445;50.216;7.912;2022-08-21T09:51:09;22.20;1.00
20574;DHT22;10445;50.216;7.912;2022-08-21T09:54:12;22.20;1.00
20574;DHT22;10445;50.216;7.912;2022-08-21T09:57:14;22.40;1.00
20574;DHT22;10445;50.216;7.912;2022-08-21T10:00:26;22.60;1.00
20574;DHT22;10445;50.216;7.912;2022-08-21T10:03:20;22.70;1.00
20574;DHT22;10445;50.216;7.912;2022-08-21T10:06:21;22.80;1.00
20574;DHT22;10445;50.216;7.912;2022-08-21T10:09:14;22.70;1.00
20574;DHT22;10445;50.216;7.912;2022-08-21T10:12:16;22.40;1.00
20574;DHT22;10445;50.216;7.912;2022-08-21T10:15:13;22.50;1.00
20574;DHT22;10445;50.216;7.912;2022-08-21T10:18:13;23.20;1.00
20574;DHT22;10445;50.216;7.912;2022-08-21T10:21:14;23.70;1.00
20574;DHT22;10445;50.216;7.912;2022-08-21T10:24:11;24.10;1.00
20574;DHT22;10445;50.216;7.912;2022-08-21T10:27:28;24.30;1.00
20574;DHT22;10445;50.216;7.912;2022-08-21T10:30:28;24.30;1.00
20574;DHT22;10445;50.216;7.912;2022-08-21T10:33:28;23.90;1.00
20574;DHT22;10445;50.216;7.912;2022-08-21T10:36:23;23.60;1.00
20574;DHT22;10445;50.216;7.912;2022-08-21T10:39:21;23.50;1.00
20574;DHT22;10445;50.216;7.912;2022-08-21T10:42:31;23.40;1.00
20574;DHT22;10445;50.216;7.912;2022-08-21T10:45:40;23.30;1.00
20574;DHT22;10445;50.216;7.912;2022-08-21T10:48:37;23.20;1.00
20574;DHT22;10445;50.216;7.912;2022-08-21T10:51:35;23.00;1.00
20574;DHT22;10445;50.216;7.912;2022-08-21T10:54:36;22.90;1.00
20574;DHT22;10445;50.216;7.912;2022-08-21T10:57:39;22.80;1.00
20574;DHT22;10445;50.216;7.912;2022-08-21T11:00:43;22.90;1.00
20574;DHT22;10445;50.216;7.912;2022-08-21T11:03:41;23.00;1.00
20574;DHT22;10445;50.216;7.912;2022-08-21T11:06:33;23.10;1.00
20574;DHT22;10445;50.216;7.912;2022-08-21T11:09:27;23.10;1.00
20574;DHT22;10445;50.216;7.912;2022-08-21T11:12:25;23.10;1.00
20574;DHT22;10445;50.216;7.912;2022-08-21T11:15:36;23.10;1.00
20574;DHT22;10445;50.216;7.912;2022-08-21T11:18:31;23.30;1.00
20574;DHT22;10445;50.216;7.912;2022-08-21T11:21:36;23.30;1.00
20574;DHT22;10445;50.216;7.912;2022-08-21T11:24:30;23.30;1.00
20574;DHT22;10445;50.216;7.912;2022-08-21T11:27:24;23.20;1.00
20574;DHT22;10445;50.216;7.912;2022-08-21T11:30:15;23.20;1.00
20574;DHT22;10445;50.216;7.912;2022-08-21T11:33:17;23.20;1.00
20574;DHT22;10445;50.216;7.912;2022-08-21T11:36:15;23.10;1.00
20574;DHT22;10445;50.216;7.912;2022-08-21T11:39:15;23.10;1.00
20574;DHT22;10445;50.216;7.912;2022-08-21T11:42:12;23.30;1.00
20574;DHT22;10445;50.216;7.912;2022-08-21T11:45:14;23.40;1.00
20574;DHT22;10445;50.216;7.912;2022-08-21T11:48:32;23.40;1.00
20574;DHT22;10445;50.216;7.912;2022-08-21T11:51:27;23.40;1.00
20574;DHT22;10445;50.216;7.912;2022-08-21T11:54:25;23.50;1.00
20574;DHT22;10445;50.216;7.912;2022-08-21T11:57:21;23.50;1.00
20574;DHT22;10445;50.216;7.912;2022-08-21T12:00:16;23.50;1.00
20574;DHT22;10445;50.216;7.912;2022-08-21T12:03:10;23.60;1.00
20574;DHT22;10445;50.216;7.912;2022-08-21T12:06:05;23.70;1.00
20574;DHT22;10445;50.216;7.912;2022-08-21T12:08:58;23.80;1.00
20574;DHT22;10445;50.216;7.912;2022-08-21T12:11:50;24.00;1.00
20574;DHT22;10445;50.216;7.912;2022-08-21T12:14:41;24.00;1.00
20574;DHT22;10445;50.216;7.912;2022-08-21T12:17:36;24.10;1.00
20574;DHT22;10445;50.216;7.912;2022-08-21T12:20:38;24.10;1.00
20574;DHT22;10445;50.216;7.912;2022-08-21T12:24:16;24.20;1.00
20574;DHT22;10445;50.216;7.912;2022-08-21T12:27:45;24.50;1.00
20574;DHT22;10445;50.216;7.912;2022-08-21T12:30:37;24.60;1.00
20574;DHT22;10445;50.216;7.912;2022-08-21T12:33:30;24.70;1.00
20574;DHT22;10445;50.216;7.912;2022-08-21T12:36:25;25.00;1.00
20574;DHT22;10445;50.216;7.912;2022-08-21T12:47:14;25.70;1.00
20574;DHT22;10445;50.216;7.912;2022-08-21T12:50:35;26.30;1.00
20574;DHT22;10445;50.216;7.912;2022-08-21T12:53:40;27.40;1.00
20574;DHT22;10445;50.216;7.912;2022-08-21T12:56:34;28.60;1.00
20574;DHT22;10445;50.216;7.912;2022-08-21T12:59:58;29.30;1.00
20574;DHT22;10445;50.216;7.912;2022-08-21T13:03:06;29.20;1.00
20574;DHT22;10445;50.216;7.912;2022-08-21T13:05:59;29.30;1.00
20574;DHT22;10445;50.216;7.912;2022-08-21T13:08:53;29.00;1.00
20574;DHT22;10445;50.216;7.912;2022-08-21T13:11:51;28.90;1.00
20574;DHT22;10445;50.216;7.912;2022-08-21T13:14:45;28.50;1.00
20574;DHT22;10445;50.216;7.912;2022-08-21T13:17:48;28.20;1.00
20574;DHT22;10445;50.216;7.912;2022-08-21T13:20:45;27.70;1.00
20574;DHT22;10445;50.216;7.912;2022-08-21T13:23:35;27.50;1.00
20574;DHT22;10445;50.216;7.912;2022-08-21T13:26:25;27.10;1.00
20574;DHT22;10445;50.216;7.912;2022-08-21T13:29:16;26.70;1.00
20574;DHT22;10445;50.216;7.912;2022-08-21T13:32:19;26.60;1.00
20574;DHT22;10445;50.216;7.912;2022-08-21T13:35:17;26.30;1.00
20574;DHT22;10445;50.216;7.912;2022-08-21T13:38:07;26.10;1.00
20574;DHT22;10445;50.216;7.912;2022-08-21T13:40:59;26.00;1.00
20574;DHT22;10445;50.216;7.912;2022-08-21T13:43:59;25.90;1.00
20574;DHT22;10445;50.216;7.912;2022-08-21T13:46:49;25.90;1.00
20574;DHT22;10445;50.216;7.912;2022-08-21T13:49:40;25.90;1.00
20574;DHT22;10445;50.216;7.912;2022-08-21T13:52:30;26.00;1.00
20574;DHT22;10445;50.216;7.912;2022-08-21T13:55:20;26.00;1.00
20574;DHT22;10445;50.216;7.912;2022-08-21T13:58:10;26.00;1.00
20574;DHT22;10445;50.216;7.912;2022-08-21T14:01:01;25.90;1.00
20574;DHT22;10445;50.216;7.912;2022-08-21T14:03:55;25.90;1.00
20574;DHT22;10445;50.216;7.912;2022-08-21T14:06:46;25.90;1.00
20574;DHT22;10445;50.216;7.912;2022-08-21T14:09:41;26.10;1.00
20574;DHT22;10445;50.216;7.912;2022-08-21T14:12:38;26.60;1.00
20574;DHT22;10445;50.216;7.912;2022-08-21T14:15:31;26.80;1.00
20574;DHT22;10445;50.216;7.912;2022-08-21T14:18:20;26.70;1.00
20574;DHT22;10445;50.216;7.912;2022-08-21T14:21:12;26.50;1.00
20574;DHT22;10445;50.216;7.912;2022-08-21T14:24:08;26.60;1.00
20574;DHT22;10445;50.216;7.912;2022-08-21T14:27:02;26.70;1.00
20574;DHT22;10445;50.216;7.912;2022-08-21T14:29:58;26.60;1.00
20574;DHT22;10445;50.216;7.912;2022-08-21T14:32:48;26.40;1.00
20574;DHT22;10445;50.216;7.912;2022-08-21T14:35:37;26.30;1.00
20574;DHT22;10445;50.216;7.912;2022-08-21T14:38:27;26.30;1.00
20574;DHT22;10445;50.216;7.912;2022-08-21T14:41:18;26.40;1.00
20574;DHT22;10445;50.216;7.912;2022-08-21T14:44:10;26.40;1.00
20574;DHT22;10445;50.216;7.912;2022-08-21T14:47:01;26.30;1.00
20574;DHT22;10445;50.216;7.912;2022-08-21T14:49:51;26.20;1.00
20574;DHT22;10445;50.216;7.912;2022-08-21T14:52:41;26.20;1.00
20574;DHT22;10445;50.216;7.912;2022-08-21T14:55:31;26.10;1.00
20574;DHT22;10445;50.216;7.912;2022-08-21T14:58:42;26.10;1.00
20574;DHT22;10445;50.216;7.912;2022-08-21T15:01:44;26.10;1.00
20574;DHT22;10445;50.216;7.912;2022-08-21T15:04:35;25.90;1.00
20574;DHT22;10445;50.216;7.912;2022-08-21T15:07:23;25.80;1.00
20574;DHT22;10445;50.216;7.912;2022-08-21T15:10:13;25.70;1.00
20574;DHT22;10445;50.216;7.912;2022-08-21T15:13:02;25.60;1.00
20574;DHT22;10445;50.216;7.912;2022-08-21T15:15:51;25.40;1.00
20574;DHT22;10445;50.216;7.912;2022-08-21T15:18:40;25.50;1.00
20574;DHT22;10445;50.216;7.912;2022-08-21T15:21:31;25.30;1.00
20574;DHT22;10445;50.216;7.912;2022-08-21T15:24:20;25.40;1.00
20574;DHT22;10445;50.216;7.912;2022-08-21T15:27:09;25.40;1.00
20574;DHT22;10445;50.216;7.912;2022-08-21T15:30:03;25.60;1.00
20574;DHT22;10445;50.216;7.912;2022-08-21T15:32:52;25.50;1.00
20574;DHT22;10445;50.216;7.912;2022-08-21T15:35:41;25.30;1.00
20574;DHT22;10445;50.216;7.912;2022-08-21T15:38:32;25.20;1.00
20574;DHT22;10445;50.216;7.912;2022-08-21T15:41:20;25.10;1.00
20574;DHT22;10445;50.216;7.912;2022-08-21T15:44:10;25.10;1.00
20574;DHT22;10445;50.216;7.912;2022-08-21T15:47:00;25.10;1.00
20574;DHT22;10445;50.216;7.912;2022-08-21T15:49:48;25.00;1.00
20574;DHT22;10445;50.216;7.912;2022-08-21T15:52:37;25.00;1.00
20574;DHT22;10445;50.216;7.912;2022-08-21T15:55:28;25.10;1.00
20574;DHT22;10445;50.216;7.912;2022-08-21T15:58:17;25.10;1.00
20574;DHT22;10445;50.216;7.912;2022-08-21T16:01:07;25.20;1.00
20574;DHT22;10445;50.216;7.912;2022-08-21T16:03:56;25.10;1.00
20574;DHT22;10445;50.216;7.912;2022-08-21T16:06:44;25.10;1.00
20574;DHT22;10445;50.216;7.912;2022-08-21T16:09:42;25.10;1.00
20574;DHT22;10445;50.216;7.912;2022-08-21T16:12:35;25.00;1.00
20574;DHT22;10445;50.216;7.912;2022-08-21T16:15:26;24.90;1.00
20574;DHT22;10445;50.216;7.912;2022-08-21T16:18:17;24.90;1.00
20574;DHT22;10445;50.216;7.912;2022-08-21T16:21:06;24.80;1.00
20574;DHT22;10445;50.216;7.912;2022-08-21T16:23:55;24.70;1.00
20574;DHT22;10445;50.216;7.912;2022-08-21T16:26:44;24.60;1.00
20574;DHT22;10445;50.216;7.912;2022-08-21T16:29:45;24.60;1.00
20574;DHT22;10445;50.216;7.912;2022-08-21T16:32:34;24.60;1.00
20574;DHT22;10445;50.216;7.912;2022-08-21T16:35:23;24.50;1.00
20574;DHT22;10445;50.216;7.912;2022-08-21T16:38:12;24.40;1.00
20574;DHT22;10445;50.216;7.912;2022-08-21T16:41:01;24.30;1.00
20574;DHT22;10445;50.216;7.912;2022-08-21T16:43:52;24.20;1.00
20574;DHT22;10445;50.216;7.912;2022-08-21T16:46:42;24.20;1.00
20574;DHT22;10445;50.216;7.912;2022-08-21T16:49:31;24.10;1.00
20574;DHT22;10445;50.216;7.912;2022-08-21T16:52:20;24.00;1.00
20574;DHT22;10445;50.216;7.912;2022-08-21T16:55:09;24.00;1.00
20574;DHT22;10445;50.216;7.912;2022-08-21T16:57:58;23.90;1.00
20574;DHT22;10445;50.216;7.912;2022-08-21T17:00:47;23.90;1.00
20574;DHT22;10445;50.216;7.912;2022-08-21T17:03:40;23.80;1.00
20574;DHT22;10445;50.216;7.912;2022-08-21T17:06:29;23.70;1.00
20574;DHT22;10445;50.216;7.912;2022-08-21T17:09:18;23.60;1.00
20574;DHT22;10445;50.216;7.912;2022-08-21T17:12:07;23.50;1.00
20574;DHT22;10445;50.216;7.912;2022-08-21T17:14:56;23.50;1.00
20574;DHT22;10445;50.216;7.912;2022-08-21T17:17:48;23.50;1.00
20574;DHT22;10445;50.216;7.912;2022-08-21T17:20:39;23.40;1.00
20574;DHT22;10445;50.216;7.912;2022-08-21T17:23:27;23.40;1.00
20574;DHT22;10445;50.216;7.912;2022-08-21T17:26:16;23.40;1.00
20574;DHT22;10445;50.216;7.912;2022-08-21T17:29:05;23.30;1.00
20574;DHT22;10445;50.216;7.912;2022-08-21T17:31:56;23.30;1.00
20574;DHT22;10445;50.216;7.912;2022-08-21T17:34:45;23.20;1.00
20574;DHT22;10445;50.216;7.912;2022-08-21T17:37:36;23.10;1.00
20574;DHT22;10445;50.216;7.912;2022-08-21T17:40:25;23.10;1.00
20574;DHT22;10445;50.216;7.912;2022-08-21T17:43:14;23.00;1.00
20574;DHT22;10445;50.216;7.912;2022-08-21T17:46:03;22.90;1.00
20574;DHT22;10445;50.216;7.912;2022-08-21T17:48:52;22.90;1.00
20574;DHT22;10445;50.216;7.912;2022-08-21T17:51:41;22.80;1.00
20574;DHT22;10445;50.216;7.912;2022-08-21T17:54:31;22.50;1.00
20574;DHT22;10445;50.216;7.912;2022-08-21T17:57:22;22.40;1.00
20574;DHT22;10445;50.216;7.912;2022-08-21T18:00:16;22.30;1.00
20574;DHT22;10445;50.216;7.912;2022-08-21T18:03:09;22.20;1.00
20574;DHT22;10445;50.216;7.912;2022-08-21T18:06:01;22.10;1.00
20574;DHT22;10445;50.216;7.912;2022-08-21T18:08:49;22.00;1.00
20574;DHT22;10445;50.216;7.912;2022-08-21T18:11:41;21.90;1.00
20574;DHT22;10445;50.216;7.912;2022-08-21T18:14:33;21.80;1.00
20574;DHT22;10445;50.216;7.912;2022-08-21T18:17:25;21.60;1.00
20574;DHT22;10445;50.216;7.912;2022-08-21T18:20:16;21.50;1.00
20574;DHT22;10445;50.216;7.912;2022-08-21T18:23:06;21.40;1.00
20574;DHT22;10445;50.216;7.912;2022-08-21T18:25:56;21.30;1.00
20574;DHT22;10445;50.216;7.912;2022-08-21T18:28:46;21.20;1.00
20574;DHT22;10445;50.216;7.912;2022-08-21T18:31:37;21.10;1.00
20574;DHT22;10445;50.216;7.912;2022-08-21T18:34:29;21.00;1.00